Time;durP1;ratioP1;P1;durP2;ratioP2;P2;SDS_P1;SDS_P2;PMS_P1;PMS_P2;Temp;Humidity;BMP_temperature;BMP_pressure;BME280_temperature;BME280_humidity;BME280_pressure;Samples;Min_cycle;Max_cycle;Signal;HPM_P1;HPM_P2
2023/09/02 00:01:06;;;;;;;0.88;0.85;;;;;;;;;;4974376;28;58348;-68
2023/09/02 00:03:34;;;;;;;0.47;0.47;;;;;;;;;;4976076;28;58427;-68
2023/09/02 00:05:59;;;;;;;1.20;1.10;;;;;;;;;;4972481;28;61297;-69
2023/09/02 00:08:24;;;;;;;1.20;0.90;;;;;;;;;;4975872;28;58351;-69
2023/09/02 00:10:49;;;;;;;1.10;1.00;;;;;;;;;;4972249;28;60317;-68
2023/09/02 00:13:15;;;;;;;0.50;0.50;;;;;;;;;;4974088;28;58438;-67
2023/09/02 00:15:41;;;;;;;1.03;0.90;;;;;;;;;;4957107;28;58971;-67
2023/09/02 00:18:06;;;;;;;0.93;0.93;;;;;;;;;;4970085;28;59387;-67
2023/09/02 00:20:31;;;;;;;0.73;0.63;;;;;;;;;;4966305;28;57822;-70
2023/09/02 00:22:56;;;;;;;0.80;0.80;;;;;;;;;;4972966;28;58442;-70
2023/09/02 00:25:22;;;;;;;0.80;0.80;;;;;;;;;;4968393;28;59578;-68
2023/09/02 00:27:47;;;;;;;0.68;0.68;;;;;;;;;;4972522;28;58411;-68
2023/09/02 00:30:13;;;;;;;0.80;0.80;;;;;;;;;;4969825;28;58452;-70
2023/09/02 00:32:38;;;;;;;0.63;0.60;;;;;;;;;;4969883;28;58893;-68
2023/09/02 00:35:03;;;;;;;0.50;0.50;;;;;;;;;;4968256;28;58883;-68
2023/09/02 00:37:28;;;;;;;0.70;0.70;;;;;;;;;;4971543;28;59000;-69
2023/09/02 00:39:53;;;;;;;0.80;0.80;;;;;;;;;;4969222;28;59829;-68
2023/09/02 00:42:19;;;;;;;1.27;0.60;;;;;;;;;;4966249;28;58893;-67
2023/09/02 00:44:44;;;;;;;0.57;0.57;;;;;;;;;;4964651;28;58771;-68
2023/09/02 00:47:10;;;;;;;0.60;0.60;;;;;;;;;;4966387;28;58300;-67
2023/09/02 00:49:35;;;;;;;0.40;0.40;;;;;;;;;;4964866;28;58708;-69
2023/09/02 00:52:00;;;;;;;0.53;0.53;;;;;;;;;;4964580;28;58491;-68
2023/09/02 00:54:25;;;;;;;1.43;0.80;;;;;;;;;;4967439;28;58390;-68
2023/09/02 00:56:51;;;;;;;0.60;0.60;;;;;;;;;;4964790;28;59338;-67
2023/09/02 00:59:16;;;;;;;0.60;0.60;;;;;;;;;;4964599;28;58506;-68
2023/09/02 01:01:43;;;;;;;0.77;0.77;;;;;;;;;;4969904;28;58754;-68
2023/09/02 01:04:09;;;;;;;0.67;0.67;;;;;;;;;;4964672;28;59968;-68
2023/09/02 01:06:34;;;;;;;2.20;0.87;;;;;;;;;;4970733;28;58420;-68
2023/09/02 01:08:59;;;;;;;0.68;0.68;;;;;;;;;;4950597;28;60335;-68
2023/09/02 01:11:24;;;;;;;0.80;0.80;;;;;;;;;;4966297;28;58321;-66
2023/09/02 01:13:50;;;;;;;0.53;0.53;;;;;;;;;;4966609;28;58357;-67
2023/09/02 01:16:15;;;;;;;0.60;0.60;;;;;;;;;;4949081;28;60801;-69
2023/09/02 01:18:40;;;;;;;0.60;0.60;;;;;;;;;;4964068;28;58469;-69
2023/09/02 01:21:15;;;;;;;0.60;0.60;;;;;;;;;;4968512;28;58862;-68
2023/09/02 01:23:45;;;;;;;1.05;0.93;;;;;;;;;;4967152;28;58378;-67
2023/09/02 01:26:29;;;;;;;0.52;0.52;;;;;;;;;;4964292;28;58572;-70
2023/09/02 01:28:57;;;;;;;0.98;0.98;;;;;;;;;;4966877;28;59307;-69
2023/09/02 01:31:24;;;;;;;0.50;0.50;;;;;;;;;;4966852;28;58543;-67
2023/09/02 01:33:52;;;;;;;0.63;0.63;;;;;;;;;;4968028;28;58292;-71
2023/09/02 01:36:17;;;;;;;;;;;;;;;;;;4966935;28;59640;-71
2023/09/02 01:38:43;;;;;;;0.52;0.52;;;;;;;;;;4968243;28;57854;-71
2023/09/02 01:41:09;;;;;;;0.70;0.68;;;;;;;;;;4966993;28;58745;-71
2023/09/02 01:43:35;;;;;;;0.90;0.90;;;;;;;;;;4968726;28;58994;-71
2023/09/02 01:46:00;;;;;;;0.50;0.50;;;;;;;;;;4966025;28;58588;-71
2023/09/02 01:48:26;;;;;;;0.70;0.70;;;;;;;;;;4962964;28;61033;-71
2023/09/02 01:50:52;;;;;;;0.63;0.63;;;;;;;;;;4967122;28;58333;-71
2023/09/02 01:53:17;;;;;;;0.80;0.60;;;;;;;;;;4969233;28;58503;-71
2023/09/02 01:55:42;;;;;;;0.47;0.43;;;;;;;;;;4969379;28;58486;-71
2023/09/02 01:58:07;;;;;;;0.80;0.43;;;;;;;;;;4965778;28;58501;-71
2023/09/02 02:00:33;;;;;;;0.50;0.50;;;;;;;;;;4968414;28;58531;-71
2023/09/02 02:02:59;;;;;;;0.70;0.70;;;;;;;;;;4968219;28;59267;-71
2023/09/02 02:05:28;;;;;;;0.55;0.55;;;;;;;;;;4968827;28;58166;-71
2023/09/02 02:07:58;;;;;;;0.52;0.52;;;;;;;;;;4964128;28;60439;-71
2023/09/02 02:10:24;;;;;;;0.50;0.50;;;;;;;;;;4966750;28;58521;-71
2023/09/02 02:12:50;;;;;;;0.60;0.40;;;;;;;;;;4968247;28;58404;-71
2023/09/02 02:15:15;;;;;;;0.70;0.70;;;;;;;;;;4933030;28;59646;-71
2023/09/02 02:17:41;;;;;;;0.57;0.50;;;;;;;;;;4969555;28;58279;-71
2023/09/02 02:20:07;;;;;;;0.85;0.77;;;;;;;;;;4967453;28;58490;-71
2023/09/02 02:22:32;;;;;;;0.55;0.55;;;;;;;;;;4967582;28;59002;-73
2023/09/02 02:24:57;;;;;;;1.10;1.00;;;;;;;;;;4967151;28;58307;-73
2023/09/02 02:27:22;;;;;;;1.17;0.70;;;;;;;;;;4967974;28;58807;-73
2023/09/02 02:29:47;;;;;;;0.52;0.52;;;;;;;;;;4967179;28;58850;-72
2023/09/02 02:32:12;;;;;;;0.50;0.50;;;;;;;;;;4970632;28;58226;-72
2023/09/02 02:34:38;;;;;;;0.85;0.80;;;;;;;;;;4972142;28;59036;-73
2023/09/02 02:37:03;;;;;;;0.53;0.53;;;;;;;;;;4968418;28;59420;-72
2023/09/02 02:39:28;;;;;;;0.70;0.70;;;;;;;;;;4970005;28;58614;-73
2023/09/02 02:41:54;;;;;;;1.02;1.02;;;;;;;;;;4971220;28;58540;-72
2023/09/02 02:44:19;;;;;;;0.63;0.60;;;;;;;;;;4968612;28;58529;-72
2023/09/02 02:46:44;;;;;;;0.83;0.83;;;;;;;;;;4968213;28;58644;-72
2023/09/02 02:49:11;;;;;;;0.73;0.73;;;;;;;;;;4966187;28;59048;-72
2023/09/02 02:51:36;;;;;;;0.63;0.63;;;;;;;;;;4970386;28;58373;-73
2023/09/02 02:54:01;;;;;;;0.82;0.65;;;;;;;;;;4969568;28;58445;-72
2023/09/02 02:56:26;;;;;;;0.50;0.50;;;;;;;;;;4968500;28;58794;-73
2023/09/02 02:58:53;;;;;;;0.97;0.97;;;;;;;;;;4968018;28;58344;-72
2023/09/02 03:01:18;;;;;;;0.70;0.70;;;;;;;;;;4970048;28;59928;-72
2023/09/02 03:03:45;;;;;;;1.00;0.77;;;;;;;;;;4969332;28;59331;-72
2023/09/02 03:06:14;;;;;;;0.53;0.53;;;;;;;;;;4967591;28;59463;-72
2023/09/02 03:08:39;;;;;;;0.70;0.70;;;;;;;;;;4967042;28;59704;-72
2023/09/02 03:11:08;;;;;;;1.10;1.00;;;;;;;;;;4965845;28;58428;-72
2023/09/02 03:13:36;;;;;;;;;;;;;;;;;;4968115;28;58861;-73
2023/09/02 03:16:02;;;;;;;0.50;0.50;;;;;;;;;;4969272;28;58530;-72
2023/09/02 03:18:27;;;;;;;0.70;0.70;;;;;;;;;;4968675;28;58475;-73
2023/09/02 03:20:52;;;;;;;0.55;0.55;;;;;;;;;;4969942;28;59709;-72
2023/09/02 03:23:17;;;;;;;0.60;0.60;;;;;;;;;;4971948;28;58479;-72
2023/09/02 03:25:43;;;;;;;0.50;0.50;;;;;;;;;;4973201;28;58449;-72
2023/09/02 03:28:08;;;;;;;0.57;0.57;;;;;;;;;;4967162;28;59463;-73
2023/09/02 03:30:33;;;;;;;0.60;0.60;;;;;;;;;;4970458;28;58137;-73
2023/09/02 03:32:58;;;;;;;0.67;0.67;;;;;;;;;;4972373;28;59885;-72
2023/09/02 03:35:24;;;;;;;0.70;0.67;;;;;;;;;;4972410;28;59900;-72
2023/09/02 03:37:49;;;;;;;0.70;0.70;;;;;;;;;;4971968;28;58653;-72
2023/09/02 03:40:15;;;;;;;0.70;0.70;;;;;;;;;;4974236;28;59537;-72
2023/09/02 03:42:40;;;;;;;0.80;0.60;;;;;;;;;;4972546;28;59982;-73
2023/09/02 03:45:06;;;;;;;0.50;0.50;;;;;;;;;;4970381;28;58809;-72
2023/09/02 03:47:31;;;;;;;0.52;0.52;;;;;;;;;;4971958;28;58556;-72
2023/09/02 03:49:57;;;;;;;0.63;0.52;;;;;;;;;;4971223;28;58551;-72
2023/09/02 03:52:22;;;;;;;0.63;0.52;;;;;;;;;;4970197;28;59458;-73
2023/09/02 03:54:47;;;;;;;0.50;0.50;;;;;;;;;;4967624;28;58689;-72
2023/09/02 03:57:12;;;;;;;0.60;0.60;;;;;;;;;;4969221;28;58393;-72
2023/09/02 03:59:37;;;;;;;0.40;0.40;;;;;;;;;;4972883;28;59820;-72
2023/09/02 04:02:03;;;;;;;0.50;0.50;;;;;;;;;;4969467;28;58475;-72
2023/09/02 04:04:28;;;;;;;0.60;0.60;;;;;;;;;;4972364;28;58505;-73
2023/09/02 04:06:53;;;;;;;0.83;0.77;;;;;;;;;;4973643;28;60990;-72
2023/09/02 04:09:18;;;;;;;1.20;0.57;;;;;;;;;;4975958;28;58784;-73
2023/09/02 04:11:43;;;;;;;0.70;0.60;;;;;;;;;;4978231;28;58439;-72
2023/09/02 04:14:08;;;;;;;0.40;0.40;;;;;;;;;;4973855;28;60569;-72
2023/09/02 04:16:34;;;;;;;1.13;0.47;;;;;;;;;;4970932;28;58804;-72
2023/09/02 04:19:02;;;;;;;0.57;0.50;;;;;;;;;;4957529;28;60381;-72
2023/09/02 04:21:27;;;;;;;0.40;0.40;;;;;;;;;;4971126;28;59735;-73
2023/09/02 04:23:52;;;;;;;0.40;0.40;;;;;;;;;;4974088;28;58379;-72
2023/09/02 04:26:19;;;;;;;1.15;0.60;;;;;;;;;;4973330;28;59630;-72
2023/09/02 04:28:44;;;;;;;0.60;0.60;;;;;;;;;;4974588;28;59768;-73
2023/09/02 04:31:09;;;;;;;0.47;0.47;;;;;;;;;;4973721;28;58468;-72
2023/09/02 04:33:34;;;;;;;0.43;0.43;;;;;;;;;;4974692;28;59030;-73
2023/09/02 04:36:00;;;;;;;0.50;0.50;;;;;;;;;;4972132;28;58492;-73
2023/09/02 04:38:25;;;;;;;0.50;0.50;;;;;;;;;;4973764;28;58220;-72
2023/09/02 04:40:50;;;;;;;0.30;0.30;;;;;;;;;;4959617;28;58632;-72
2023/09/02 04:43:16;;;;;;;0.60;0.60;;;;;;;;;;4973462;28;58424;-72
2023/09/02 04:45:41;;;;;;;0.50;0.50;;;;;;;;;;4971500;28;59247;-72
2023/09/02 04:48:07;;;;;;;2.17;0.70;;;;;;;;;;4975613;28;58395;-72
2023/09/02 04:50:33;;;;;;;0.55;0.55;;;;;;;;;;4975627;28;58420;-73
2023/09/02 04:52:59;;;;;;;0.63;0.63;;;;;;;;;;4972404;28;59718;-72
2023/09/02 04:55:25;;;;;;;0.30;0.30;;;;;;;;;;4973278;28;58272;-72
2023/09/02 04:57:53;;;;;;;0.88;0.70;;;;;;;;;;4973621;28;60556;-73
2023/09/02 05:00:19;;;;;;;0.40;0.40;;;;;;;;;;4971432;28;59235;-72
2023/09/02 05:02:46;;;;;;;0.68;0.68;;;;;;;;;;4976783;28;58422;-70
2023/09/02 05:05:12;;;;;;;0.50;0.50;;;;;;;;;;4972582;28;59542;-70
2023/09/02 05:07:37;;;;;;;0.65;0.50;;;;;;;;;;4966602;28;59073;-69
2023/09/02 05:10:02;;;;;;;0.60;0.60;;;;;;;;;;4972850;28;58351;-68
2023/09/02 05:12:27;;;;;;;0.40;0.40;;;;;;;;;;4971501;28;58603;-68
2023/09/02 05:14:53;;;;;;;0.40;0.40;;;;;;;;;;4972134;28;58381;-68
2023/09/02 05:17:18;;;;;;;0.45;0.45;;;;;;;;;;4974014;28;59440;-68
2023/09/02 05:19:43;;;;;;;0.40;0.40;;;;;;;;;;4971999;28;58537;-69
2023/09/02 05:22:09;;;;;;;0.93;0.80;;;;;;;;;;4974629;28;58427;-68
2023/09/02 05:24:34;;;;;;;0.95;0.95;;;;;;;;;;4970783;28;58535;-68
2023/09/02 05:26:59;;;;;;;0.60;0.60;;;;;;;;;;4970889;28;58563;-69
2023/09/02 05:29:25;;;;;;;0.38;0.38;;;;;;;;;;4975313;28;58457;-69
2023/09/02 05:31:50;;;;;;;0.50;0.50;;;;;;;;;;4972438;28;58640;-70
2023/09/02 05:34:15;;;;;;;0.70;0.70;;;;;;;;;;4968165;28;59091;-69
2023/09/02 05:36:40;;;;;;;1.27;0.80;;;;;;;;;;4973561;28;60391;-70
2023/09/02 05:39:05;;;;;;;0.80;0.80;;;;;;;;;;4972302;28;58411;-70
2023/09/02 05:41:30;;;;;;;0.60;0.60;;;;;;;;;;4973392;28;58622;-69
2023/09/02 05:43:56;;;;;;;0.60;0.60;;;;;;;;;;4977026;28;59207;-70
2023/09/02 05:46:21;;;;;;;0.70;0.70;;;;;;;;;;4972585;28;58811;-70
2023/09/02 05:48:46;;;;;;;0.70;0.60;;;;;;;;;;4966509;28;58341;-68
2023/09/02 05:51:11;;;;;;;1.20;0.80;;;;;;;;;;4970606;28;59487;-68
2023/09/02 05:53:36;;;;;;;0.60;0.60;;;;;;;;;;4972934;28;58775;-69
2023/09/02 05:56:01;;;;;;;0.80;0.80;;;;;;;;;;4972811;28;58378;-69
2023/09/02 05:58:27;;;;;;;0.68;0.68;;;;;;;;;;4968492;28;58647;-68
2023/09/02 06:00:52;;;;;;;0.82;0.80;;;;;;;;;;4974563;28;58513;-70
2023/09/02 06:03:17;;;;;;;0.90;0.80;;;;;;;;;;4973996;28;60096;-69
2023/09/02 06:05:42;;;;;;;0.67;0.67;;;;;;;;;;4971909;28;58569;-68
2023/09/02 06:08:08;;;;;;;0.70;0.70;;;;;;;;;;4971417;28;58393;-68
2023/09/02 06:10:33;;;;;;;2.00;0.67;;;;;;;;;;4973607;28;60271;-70
2023/09/02 06:12:58;;;;;;;0.98;0.80;;;;;;;;;;4972064;28;58612;-68
2023/09/02 06:15:23;;;;;;;1.00;0.53;;;;;;;;;;4972489;28;58429;-69
2023/09/02 06:17:48;;;;;;;0.83;0.80;;;;;;;;;;4971620;28;59479;-70
2023/09/02 06:20:20;;;;;;;1.25;0.80;;;;;;;;;;4968783;28;59851;-70
2023/09/02 06:22:45;;;;;;;0.63;0.60;;;;;;;;;;4975831;28;58835;-69
2023/09/02 06:25:10;;;;;;;1.30;1.20;;;;;;;;;;4970907;28;58715;-68
2023/09/02 06:27:35;;;;;;;0.80;0.80;;;;;;;;;;4974337;28;58327;-69
2023/09/02 06:30:00;;;;;;;0.82;0.82;;;;;;;;;;4972304;28;58409;-70
2023/09/02 06:32:26;;;;;;;0.73;0.73;;;;;;;;;;4971722;28;58947;-69
2023/09/02 06:34:54;;;;;;;1.00;1.00;;;;;;;;;;4974909;28;58393;-71
2023/09/02 06:37:19;;;;;;;2.92;0.90;;;;;;;;;;4974162;28;62802;-70
2023/09/02 06:39:44;;;;;;;2.07;1.50;;;;;;;;;;4975062;28;58455;-69
2023/09/02 06:42:09;;;;;;;1.07;0.93;;;;;;;;;;4976454;28;58851;-68
2023/09/02 06:44:34;;;;;;;0.82;0.80;;;;;;;;;;4969017;28;58766;-68
2023/09/02 06:46:59;;;;;;;1.17;1.07;;;;;;;;;;4973516;28;58530;-69
2023/09/02 06:49:25;;;;;;;1.13;1.13;;;;;;;;;;4974314;28;58597;-68
2023/09/02 06:51:50;;;;;;;1.17;1.07;;;;;;;;;;4974421;28;58522;-70
2023/09/02 06:54:15;;;;;;;2.28;0.77;;;;;;;;;;4971289;28;58422;-68
2023/09/02 06:56:40;;;;;;;2.22;1.20;;;;;;;;;;4957418;28;58509;-71
2023/09/02 06:59:05;;;;;;;0.97;0.97;;;;;;;;;;4972062;28;58442;-69
2023/09/02 07:01:30;;;;;;;2.53;0.80;;;;;;;;;;4974130;28;58449;-69
2023/09/02 07:03:56;;;;;;;1.10;0.87;;;;;;;;;;4966890;28;58837;-70
2023/09/02 07:06:23;;;;;;;0.98;0.98;;;;;;;;;;4973721;28;58391;-70
2023/09/02 07:08:48;;;;;;;2.00;1.10;;;;;;;;;;4970284;28;59379;-69
2023/09/02 07:11:14;;;;;;;1.10;0.90;;;;;;;;;;4971882;28;58507;-69
2023/09/02 07:13:39;;;;;;;1.75;0.90;;;;;;;;;;4968517;28;57979;-68
2023/09/02 07:16:05;;;;;;;2.17;0.80;;;;;;;;;;4972623;28;58439;-69
2023/09/02 07:18:30;;;;;;;2.28;1.00;;;;;;;;;;4970292;28;59174;-68
2023/09/02 07:20:57;;;;;;;1.23;1.10;;;;;;;;;;4972793;28;58255;-72
2023/09/02 07:23:22;;;;;;;0.98;0.68;;;;;;;;;;4967766;28;59984;-73
2023/09/02 07:25:47;;;;;;;2.67;1.23;;;;;;;;;;4973718;28;58464;-73
2023/09/02 07:28:12;;;;;;;0.80;0.80;;;;;;;;;;4970468;28;59016;-73
2023/09/02 07:30:38;;;;;;;1.25;0.90;;;;;;;;;;4972056;28;58486;-73
2023/09/02 07:33:03;;;;;;;1.60;1.23;;;;;;;;;;4969920;28;58377;-73
2023/09/02 07:35:28;;;;;;;1.43;0.80;;;;;;;;;;4972543;28;58633;-73
2023/09/02 07:37:53;;;;;;;1.85;0.98;;;;;;;;;;4970412;28;58880;-73
2023/09/02 07:40:18;;;;;;;2.13;0.70;;;;;;;;;;4964606;28;58464;-73
2023/09/02 07:42:43;;;;;;;1.57;1.20;;;;;;;;;;4969709;28;58635;-73
2023/09/02 07:45:09;;;;;;;2.40;1.02;;;;;;;;;;4970758;28;58432;-73
2023/09/02 07:47:34;;;;;;;2.75;1.75;;;;;;;;;;4970002;28;59081;-73
2023/09/02 07:49:59;;;;;;;0.80;0.80;;;;;;;;;;4960599;28;59547;-73
2023/09/02 07:52:24;;;;;;;1.90;1.10;;;;;;;;;;4969562;28;58483;-73
2023/09/02 07:54:50;;;;;;;1.40;1.30;;;;;;;;;;4970185;28;59046;-72
2023/09/02 07:57:15;;;;;;;2.05;0.68;;;;;;;;;;4970488;28;59026;-73
2023/09/02 07:59:40;;;;;;;2.33;0.73;;;;;;;;;;4972307;28;58470;-73
2023/09/02 08:02:05;;;;;;;0.73;0.68;;;;;;;;;;4970155;28;59676;-73
2023/09/02 08:04:31;;;;;;;2.15;1.23;;;;;;;;;;4969831;28;59751;-73
2023/09/02 08:06:56;;;;;;;0.80;0.80;;;;;;;;;;4971278;28;58436;-74
2023/09/02 08:09:21;;;;;;;1.30;1.00;;;;;;;;;;4952087;28;58649;-73
2023/09/02 08:11:46;;;;;;;1.70;1.17;;;;;;;;;;4970177;28;58437;-73
2023/09/02 08:14:11;;;;;;;3.73;1.10;;;;;;;;;;4971295;28;59391;-73
2023/09/02 08:16:36;;;;;;;2.20;0.57;;;;;;;;;;4971607;28;58994;-73
2023/09/02 08:19:01;;;;;;;1.83;1.13;;;;;;;;;;4973046;28;58516;-73
2023/09/02 08:21:27;;;;;;;1.40;0.83;;;;;;;;;;4970884;28;58434;-73
2023/09/02 08:23:52;;;;;;;1.07;0.73;;;;;;;;;;4971217;28;59179;-74
2023/09/02 08:26:18;;;;;;;1.77;0.67;;;;;;;;;;4972430;28;58362;-73
2023/09/02 08:28:44;;;;;;;2.80;1.25;;;;;;;;;;4967459;28;60288;-73
2023/09/02 08:31:11;;;;;;;1.95;0.77;;;;;;;;;;4972446;28;58474;-73
2023/09/02 08:33:36;;;;;;;1.25;1.00;;;;;;;;;;4969108;28;58682;-73
2023/09/02 08:36:01;;;;;;;3.70;1.40;;;;;;;;;;4969971;28;59019;-68
2023/09/02 08:38:26;;;;;;;2.00;1.00;;;;;;;;;;4949928;28;58712;-72
2023/09/02 08:40:57;;;;;;;2.17;1.70;;;;;;;;;;4973051;28;58640;-68
2023/09/02 08:43:23;;;;;;;1.85;1.00;;;;;;;;;;4974976;28;62793;-70
2023/09/02 08:45:49;;;;;;;1.15;1.05;;;;;;;;;;4972929;28;58426;-69
2023/09/02 08:48:21;;;;;;;3.55;1.30;;;;;;;;;;4969679;28;58364;-70
2023/09/02 08:50:46;;;;;;;2.33;0.80;;;;;;;;;;4972136;28;58458;-69
2023/09/02 08:53:11;;;;;;;2.88;1.67;;;;;;;;;;4974985;28;58836;-71
2023/09/02 08:55:37;;;;;;;1.63;1.30;;;;;;;;;;4972229;28;59291;-71
2023/09/02 08:58:02;;;;;;;1.20;0.98;;;;;;;;;;4972878;28;58422;-68
2023/09/02 09:00:27;;;;;;;2.67;1.63;;;;;;;;;;4970005;28;60170;-70
2023/09/02 09:02:53;;;;;;;1.53;0.97;;;;;;;;;;4967225;28;58662;-68
2023/09/02 09:05:18;;;;;;;2.37;1.00;;;;;;;;;;4971314;28;58402;-68
2023/09/02 09:07:44;;;;;;;3.53;1.88;;;;;;;;;;4972259;28;58464;-70
2023/09/02 09:10:10;;;;;;;2.10;1.75;;;;;;;;;;4972368;28;58333;-69
2023/09/02 09:12:36;;;;;;;3.30;1.70;;;;;;;;;;4966921;28;58700;-69
2023/09/02 09:15:01;;;;;;;2.90;1.20;;;;;;;;;;4967901;28;58500;-71
2023/09/02 09:17:28;;;;;;;1.23;1.13;;;;;;;;;;4967460;28;58409;-70
2023/09/02 09:19:53;;;;;;;1.13;1.02;;;;;;;;;;4968725;28;59619;-72
2023/09/02 09:22:18;;;;;;;4.67;1.73;;;;;;;;;;4967533;28;58584;-69
2023/09/02 09:24:44;;;;;;;4.40;1.63;;;;;;;;;;4973288;28;59697;-69
2023/09/02 09:27:10;;;;;;;2.55;1.20;;;;;;;;;;4971335;28;58469;-70
2023/09/02 09:29:40;;;;;;;3.78;1.30;;;;;;;;;;4970747;28;58272;-69
2023/09/02 09:32:13;;;;;;;4.50;1.25;;;;;;;;;;4973472;28;58655;-70
2023/09/02 09:34:41;;;;;;;5.10;1.33;;;;;;;;;;4971288;28;58256;-69
2023/09/02 09:37:08;;;;;;;2.50;1.77;;;;;;;;;;4954505;28;58427;-69
2023/09/02 09:39:42;;;;;;;5.40;1.25;;;;;;;;;;4972337;28;58754;-70
2023/09/02 09:42:07;;;;;;;1.58;1.10;;;;;;;;;;4971576;28;58439;-69
2023/09/02 09:44:33;;;;;;;5.45;0.98;;;;;;;;;;4973135;28;58442;-74
2023/09/02 09:46:58;;;;;;;2.77;1.00;;;;;;;;;;4972324;28;59340;-74
2023/09/02 09:49:28;;;;;;;1.70;1.00;;;;;;;;;;4971026;28;59175;-76
2023/09/02 09:51:59;;;;;;;1.25;1.15;;;;;;;;;;4975357;28;58391;-76
2023/09/02 09:54:40;;;;;;;2.15;1.35;;;;;;;;;;4970739;28;58304;-76
2023/09/02 09:57:07;;;;;;;2.38;1.10;;;;;;;;;;4966749;28;58340;-75
2023/09/02 09:59:34;;;;;;;2.75;0.70;;;;;;;;;;4973531;28;58332;-76
2023/09/02 10:02:00;;;;;;;2.17;1.10;;;;;;;;;;4958671;28;58420;-75
2023/09/02 10:04:26;;;;;;;1.20;1.00;;;;;;;;;;4971902;28;58319;-74
2023/09/02 10:06:56;;;;;;;1.35;0.65;;;;;;;;;;4972218;28;58581;-74
2023/09/02 10:09:21;;;;;;;1.67;1.00;;;;;;;;;;4957078;28;59198;-75
2023/09/02 10:11:46;;;;;;;3.50;1.10;;;;;;;;;;4970623;28;58643;-75
2023/09/02 10:14:12;;;;;;;1.60;1.10;;;;;;;;;;4970457;28;58588;-75
2023/09/02 10:16:37;;;;;;;1.20;0.80;;;;;;;;;;4971247;28;58236;-78
2023/09/02 10:19:04;;;;;;;1.67;1.30;;;;;;;;;;4971428;28;59748;-77
2023/09/02 10:21:29;;;;;;;2.35;0.90;;;;;;;;;;4970850;28;58970;-77
2023/09/02 10:23:55;;;;;;;1.23;1.13;;;;;;;;;;4957463;28;58271;-78
2023/09/02 10:26:26;;;;;;;2.47;1.00;;;;;;;;;;4974221;28;58708;-77
2023/09/02 10:28:53;;;;;;;2.05;1.55;;;;;;;;;;4970039;28;60064;-77
2023/09/02 10:31:22;;;;;;;1.50;1.03;;;;;;;;;;4972086;28;58331;-77
2023/09/02 10:33:56;;;;;;;4.00;1.25;;;;;;;;;;4969664;28;58991;-75
2023/09/02 10:36:23;;;;;;;2.42;1.02;;;;;;;;;;4966559;28;58625;-75
2023/09/02 10:38:49;;;;;;;1.30;0.88;;;;;;;;;;4970722;28;58989;-75
2023/09/02 10:41:15;;;;;;;1.63;1.00;;;;;;;;;;4973125;28;59015;-77
2023/09/02 10:43:41;;;;;;;5.28;1.25;;;;;;;;;;4972947;28;58474;-77
2023/09/02 10:46:09;;;;;;;2.75;1.20;;;;;;;;;;4972471;28;58558;-75
2023/09/02 10:48:38;;;;;;;3.03;1.02;;;;;;;;;;4972177;28;59596;-77
2023/09/02 10:51:05;;;;;;;2.88;0.80;;;;;;;;;;4971723;28;58417;-77
2023/09/02 10:53:52;;;;;;;2.70;0.85;;;;;;;;;;4969902;28;58862;-71
2023/09/02 10:56:23;;;;;;;2.20;0.90;;;;;;;;;;4971201;28;58388;-70
2023/09/02 10:58:48;;;;;;;1.52;1.00;;;;;;;;;;4973817;28;58862;-68
2023/09/02 11:01:14;;;;;;;1.03;0.70;;;;;;;;;;4969715;28;58522;-70
2023/09/02 11:03:44;;;;;;;2.17;1.20;;;;;;;;;;4970692;28;58751;-73
2023/09/02 11:06:11;;;;;;;1.95;1.00;;;;;;;;;;4969117;28;60387;-73
2023/09/02 11:08:41;;;;;;;1.05;0.95;;;;;;;;;;4972385;28;58411;-68
2023/09/02 11:11:06;;;;;;;1.42;1.00;;;;;;;;;;4967636;28;58436;-71
2023/09/02 11:13:31;;;;;;;2.53;0.67;;;;;;;;;;4976939;28;58396;-71
2023/09/02 11:16:14;;;;;;;1.70;1.40;;;;;;;;;;4969963;28;58466;-70
2023/09/02 11:18:40;;;;;;;2.60;1.30;;;;;;;;;;4966920;28;58428;-70
2023/09/02 11:21:05;;;;;;;4.20;1.27;;;;;;;;;;4952574;28;58476;-70
2023/09/02 11:23:32;;;;;;;2.00;1.43;;;;;;;;;;4971200;28;58582;-73
2023/09/02 11:26:02;;;;;;;2.08;1.38;;;;;;;;;;4970131;28;59958;-70
2023/09/02 11:28:27;;;;;;;3.60;1.52;;;;;;;;;;4965814;28;58567;-71
2023/09/02 11:31:16;;;;;;;1.75;1.48;;;;;;;;;;4968593;28;58343;-70
2023/09/02 11:33:45;;;;;;;8.73;1.05;;;;;;;;;;4969549;28;64965;-72
2023/09/02 11:36:15;;;;;;;1.67;1.17;;;;;;;;;;4969636;28;58820;-70
2023/09/02 11:38:40;;;;;;;1.30;1.20;;;;;;;;;;4967026;28;58228;-72
2023/09/02 11:41:07;;;;;;;4.33;1.70;;;;;;;;;;4972231;28;59680;-70
2023/09/02 11:43:32;;;;;;;3.78;1.40;;;;;;;;;;4974080;28;58466;-70
2023/09/02 11:45:58;;;;;;;8.20;1.70;;;;;;;;;;4970896;28;60447;-72
2023/09/02 11:48:27;;;;;;;4.18;1.30;;;;;;;;;;4971233;28;58814;-71
2023/09/02 11:50:53;;;;;;;5.25;2.33;;;;;;;;;;4974639;28;58368;-70
2023/09/02 11:53:18;;;;;;;3.83;2.35;;;;;;;;;;4970698;28;59829;-73
2023/09/02 11:55:43;;;;;;;3.37;2.07;;;;;;;;;;4973199;28;58727;-70
2023/09/02 11:58:10;;;;;;;2.30;1.10;;;;;;;;;;4974894;28;58459;-70
2023/09/02 12:00:40;;;;;;;2.03;1.35;;;;;;;;;;4973586;28;60249;-70
2023/09/02 12:03:07;;;;;;;3.55;1.80;;;;;;;;;;4970493;28;59599;-75
2023/09/02 12:05:35;;;;;;;7.15;1.70;;;;;;;;;;4972659;28;59811;-75
2023/09/02 12:08:00;;;;;;;2.33;1.48;;;;;;;;;;4971747;28;58500;-76
2023/09/02 12:10:26;;;;;;;3.73;1.43;;;;;;;;;;4936779;28;58322;-76
2023/09/02 12:12:52;;;;;;;3.05;1.23;;;;;;;;;;4974357;28;58855;-76
2023/09/02 12:15:18;;;;;;;2.75;0.98;;;;;;;;;;4968805;28;58476;-73
2023/09/02 12:17:44;;;;;;;2.53;0.90;;;;;;;;;;4967669;28;58421;-74
2023/09/02 12:20:14;;;;;;;2.75;1.15;;;;;;;;;;4967414;28;59274;-74
2023/09/02 12:22:40;;;;;;;3.78;1.60;;;;;;;;;;4971457;28;59092;-75
2023/09/02 12:25:09;;;;;;;1.75;1.10;;;;;;;;;;4971865;28;57824;-74
2023/09/02 12:27:34;;;;;;;4.38;1.10;;;;;;;;;;4970803;28;58511;-72
2023/09/02 12:29:59;;;;;;;2.17;1.30;;;;;;;;;;4970832;28;58379;-74
2023/09/02 12:32:24;;;;;;;1.67;0.90;;;;;;;;;;4970303;28;60068;-73
2023/09/02 12:34:49;;;;;;;8.43;2.80;;;;;;;;;;4971385;28;58659;-74
2023/09/02 12:37:16;;;;;;;5.87;1.40;;;;;;;;;;4971727;28;58613;-76
2023/09/02 12:39:41;;;;;;;3.65;1.33;;;;;;;;;;4971167;28;58981;-75
2023/09/02 12:42:24;;;;;;;2.70;1.58;;;;;;;;;;4972920;28;58387;-74
2023/09/02 12:44:54;;;;;;;2.45;1.15;;;;;;;;;;4970793;28;58386;-73
2023/09/02 12:47:28;;;;;;;17.25;2.15;;;;;;;;;;4968913;28;58422;-72
2023/09/02 12:49:54;;;;;;;8.25;2.20;;;;;;;;;;4953710;28;58433;-73
2023/09/02 12:52:25;;;;;;;5.70;2.08;;;;;;;;;;4972808;28;59451;-73
2023/09/02 12:54:51;;;;;;;6.97;1.65;;;;;;;;;;4970918;28;58327;-71
2023/09/02 12:57:16;;;;;;;2.55;1.50;;;;;;;;;;4974094;28;58516;-73
2023/09/02 12:59:42;;;;;;;9.55;2.03;;;;;;;;;;4973630;28;59503;-71
2023/09/02 13:02:07;;;;;;;1.83;1.50;;;;;;;;;;4970317;28;58936;-74
2023/09/02 13:04:32;;;;;;;5.38;1.30;;;;;;;;;;4973765;28;58421;-74
2023/09/02 13:06:58;;;;;;;2.40;1.27;;;;;;;;;;4970432;28;58370;-71
2023/09/02 13:09:23;;;;;;;3.83;2.05;;;;;;;;;;4966085;28;58028;-72
2023/09/02 13:11:48;;;;;;;7.47;1.50;;;;;;;;;;4967607;28;59867;-73
2023/09/02 13:14:15;;;;;;;7.05;1.25;;;;;;;;;;4971162;28;58522;-73
2023/09/02 13:16:42;;;;;;;2.40;1.05;;;;;;;;;;4972154;28;58228;-69
2023/09/02 13:19:07;;;;;;;6.93;1.90;;;;;;;;;;4972835;28;59145;-72
2023/09/02 13:21:32;;;;;;;1.95;1.77;;;;;;;;;;4973733;28;58800;-70
2023/09/02 13:23:58;;;;;;;2.37;1.13;;;;;;;;;;4973510;28;58321;-72
2023/09/02 13:26:23;;;;;;;3.20;1.40;;;;;;;;;;4974151;28;59557;-74
2023/09/02 13:28:48;;;;;;;2.28;1.25;;;;;;;;;;4973396;28;59149;-71
2023/09/02 13:31:13;;;;;;;7.57;1.77;;;;;;;;;;4972781;28;59895;-74
2023/09/02 13:33:39;;;;;;;2.90;1.10;;;;;;;;;;4971712;28;59224;-72
2023/09/02 13:36:05;;;;;;;2.92;1.38;;;;;;;;;;4970937;28;58381;-71
2023/09/02 13:38:30;;;;;;;1.65;1.42;;;;;;;;;;4971485;28;60246;-71
2023/09/02 13:40:55;;;;;;;5.07;1.70;;;;;;;;;;4973810;28;59319;-69
2023/09/02 13:43:22;;;;;;;1.50;1.20;;;;;;;;;;4971951;28;58640;-69
2023/09/02 13:45:48;;;;;;;7.28;1.85;;;;;;;;;;4971008;28;58377;-68
2023/09/02 13:48:14;;;;;;;3.15;1.20;;;;;;;;;;4970296;28;59017;-68
2023/09/02 13:50:41;;;;;;;3.35;1.58;;;;;;;;;;4970497;28;58209;-75
2023/09/02 13:53:07;;;;;;;1.57;1.03;;;;;;;;;;4968175;28;58431;-68
2023/09/02 13:55:35;;;;;;;2.35;1.10;;;;;;;;;;4965197;28;58695;-69
2023/09/02 13:58:00;;;;;;;4.15;1.30;;;;;;;;;;4972029;28;58655;-70
2023/09/02 14:00:26;;;;;;;5.07;2.10;;;;;;;;;;4968309;28;58538;-69
2023/09/02 14:02:53;;;;;;;1.92;1.00;;;;;;;;;;4965222;28;58544;-69
2023/09/02 14:05:20;;;;;;;2.03;0.77;;;;;;;;;;4968786;28;59681;-71
2023/09/02 14:07:45;;;;;;;3.03;1.17;;;;;;;;;;4968138;28;58458;-71
2023/09/02 14:10:10;;;;;;;5.80;1.67;;;;;;;;;;4967822;28;58467;-69
2023/09/02 14:12:36;;;;;;;2.38;1.15;;;;;;;;;;4971012;28;59582;-69
2023/09/02 14:15:01;;;;;;;5.28;1.40;;;;;;;;;;4973264;28;57913;-70
2023/09/02 14:17:26;;;;;;;3.85;1.20;;;;;;;;;;4971074;28;58425;-69
2023/09/02 14:19:51;;;;;;;1.08;0.80;;;;;;;;;;4964931;28;58663;-71
2023/09/02 14:22:16;;;;;;;3.50;1.63;;;;;;;;;;4969534;28;58381;-69
2023/09/02 14:24:41;;;;;;;4.20;2.07;;;;;;;;;;4954969;28;58444;-75
2023/09/02 14:27:10;;;;;;;2.47;1.47;;;;;;;;;;4971357;28;58978;-75
2023/09/02 14:29:36;;;;;;;5.93;2.15;;;;;;;;;;4968701;28;58596;-75
2023/09/02 14:32:02;;;;;;;4.07;1.20;;;;;;;;;;4970006;28;58837;-75
2023/09/02 14:34:27;;;;;;;2.65;1.00;;;;;;;;;;4968437;28;58792;-73
2023/09/02 14:36:52;;;;;;;2.20;1.00;;;;;;;;;;4969166;28;59568;-72